sensor_id;sensor_type;location;lat;lon;timestamp;P1;durP1;ratioP1;P2;durP2;ratioP2
15094;SDS011;7648;52.264;9.632;2023-04-25T00:01:07;6.73;;;3.00;;
15094;SDS011;7648;52.264;9.632;2023-04-25T00:05:10;6.77;;;3.33;;
15094;SDS011;7648;52.264;9.632;2023-04-25T00:09:15;3.93;;;3.40;;
15094;SDS011;7648;52.264;9.632;2023-04-25T00:13:16;7.80;;;3.23;;
15094;SDS011;7648;52.264;9.632;2023-04-25T00:17:19;5.47;;;3.00;;
15094;SDS011;7648;52.264;9.632;2023-04-25T00:21:23;5.20;;;3.17;;
15094;SDS011;7648;52.264;9.632;2023-04-25T00:25:25;4.33;;;2.87;;
15094;SDS011;7648;52.264;9.632;2023-04-25T00:29:27;6.00;;;3.33;;
15094;SDS011;7648;52.264;9.632;2023-04-25T00:33:29;5.33;;;3.70;;
15094;SDS011;7648;52.264;9.632;2023-04-25T00:37:32;6.03;;;3.67;;
15094;SDS011;7648;52.264;9.632;2023-04-25T00:41:35;6.07;;;3.60;;
15094;SDS011;7648;52.264;9.632;2023-04-25T00:45:38;7.50;;;3.47;;
15094;SDS011;7648;52.264;9.632;2023-04-25T00:49:40;6.73;;;3.33;;
15094;SDS011;7648;52.264;9.632;2023-04-25T00:53:44;4.53;;;3.37;;
15094;SDS011;7648;52.264;9.632;2023-04-25T00:57:46;5.00;;;3.30;;
15094;SDS011;7648;52.264;9.632;2023-04-25T01:01:50;4.10;;;2.87;;
15094;SDS011;7648;52.264;9.632;2023-04-25T01:05:52;3.87;;;3.23;;
15094;SDS011;7648;52.264;9.632;2023-04-25T01:09:55;8.60;;;3.53;;
15094;SDS011;7648;52.264;9.632;2023-04-25T01:13:57;5.40;;;3.20;;
15094;SDS011;7648;52.264;9.632;2023-04-25T01:18:00;5.73;;;3.93;;
15094;SDS011;7648;52.264;9.632;2023-04-25T01:22:04;6.17;;;3.73;;
15094;SDS011;7648;52.264;9.632;2023-04-25T01:26:06;4.17;;;3.60;;
15094;SDS011;7648;52.264;9.632;2023-04-25T01:30:10;5.93;;;3.90;;
15094;SDS011;7648;52.264;9.632;2023-04-25T01:34:14;5.10;;;3.67;;
15094;SDS011;7648;52.264;9.632;2023-04-25T01:38:17;8.30;;;4.40;;
15094;SDS011;7648;52.264;9.632;2023-04-25T01:42:19;10.90;;;4.07;;
15094;SDS011;7648;52.264;9.632;2023-04-25T01:46:21;9.73;;;3.70;;
15094;SDS011;7648;52.264;9.632;2023-04-25T01:50:23;5.83;;;3.97;;
15094;SDS011;7648;52.264;9.632;2023-04-25T01:54:26;5.17;;;3.80;;
15094;SDS011;7648;52.264;9.632;2023-04-25T01:58:29;8.33;;;3.93;;
15094;SDS011;7648;52.264;9.632;2023-04-25T02:02:42;6.50;;;3.27;;
15094;SDS011;7648;52.264;9.632;2023-04-25T02:06:57;4.17;;;3.20;;
15094;SDS011;7648;52.264;9.632;2023-04-25T02:11:08;3.60;;;3.27;;
15094;SDS011;7648;52.264;9.632;2023-04-25T02:15:15;5.63;;;2.67;;
15094;SDS011;7648;52.264;9.632;2023-04-25T02:19:24;2.67;;;2.47;;
15094;SDS011;7648;52.264;9.632;2023-04-25T02:23:26;3.33;;;3.03;;
15094;SDS011;7648;52.264;9.632;2023-04-25T02:27:29;4.40;;;2.90;;
15094;SDS011;7648;52.264;9.632;2023-04-25T02:31:33;2.73;;;2.53;;
15094;SDS011;7648;52.264;9.632;2023-04-25T02:35:35;4.90;;;2.67;;
15094;SDS011;7648;52.264;9.632;2023-04-25T02:39:37;5.90;;;2.60;;
15094;SDS011;7648;52.264;9.632;2023-04-25T02:43:40;6.40;;;2.83;;
15094;SDS011;7648;52.264;9.632;2023-04-25T02:47:42;4.60;;;2.77;;
15094;SDS011;7648;52.264;9.632;2023-04-25T02:51:45;3.87;;;2.70;;
15094;SDS011;7648;52.264;9.632;2023-04-25T02:55:47;2.80;;;2.60;;
15094;SDS011;7648;52.264;9.632;2023-04-25T02:59:50;5.77;;;2.60;;
15094;SDS011;7648;52.264;9.632;2023-04-25T03:03:52;8.23;;;3.17;;
15094;SDS011;7648;52.264;9.632;2023-04-25T03:07:54;5.87;;;2.73;;
15094;SDS011;7648;52.264;9.632;2023-04-25T03:11:56;5.77;;;2.60;;
15094;SDS011;7648;52.264;9.632;2023-04-25T03:15:59;5.77;;;2.97;;
15094;SDS011;7648;52.264;9.632;2023-04-25T03:20:04;7.30;;;2.60;;
15094;SDS011;7648;52.264;9.632;2023-04-25T03:24:08;8.77;;;3.40;;
15094;SDS011;7648;52.264;9.632;2023-04-25T03:28:11;8.13;;;2.97;;
15094;SDS011;7648;52.264;9.632;2023-04-25T03:32:14;10.03;;;2.57;;
15094;SDS011;7648;52.264;9.632;2023-04-25T03:36:16;4.20;;;2.77;;
15094;SDS011;7648;52.264;9.632;2023-04-25T03:40:18;5.50;;;3.07;;
15094;SDS011;7648;52.264;9.632;2023-04-25T03:44:40;6.50;;;3.03;;
15094;SDS011;7648;52.264;9.632;2023-04-25T03:48:44;6.73;;;2.73;;
15094;SDS011;7648;52.264;9.632;2023-04-25T03:52:52;6.40;;;2.73;;
15094;SDS011;7648;52.264;9.632;2023-04-25T03:56:54;8.07;;;3.27;;
15094;SDS011;7648;52.264;9.632;2023-04-25T04:00:59;6.07;;;3.20;;
15094;SDS011;7648;52.264;9.632;2023-04-25T04:05:06;6.50;;;3.47;;
15094;SDS011;7648;52.264;9.632;2023-04-25T04:09:11;4.87;;;2.80;;
15094;SDS011;7648;52.264;9.632;2023-04-25T04:13:16;5.13;;;2.97;;
15094;SDS011;7648;52.264;9.632;2023-04-25T04:17:18;6.97;;;2.97;;
15094;SDS011;7648;52.264;9.632;2023-04-25T04:21:22;8.80;;;2.90;;
15094;SDS011;7648;52.264;9.632;2023-04-25T04:25:24;9.50;;;2.67;;
15094;SDS011;7648;52.264;9.632;2023-04-25T04:29:38;8.43;;;2.47;;
15094;SDS011;7648;52.264;9.632;2023-04-25T04:33:46;8.00;;;2.73;;
15094;SDS011;7648;52.264;9.632;2023-04-25T04:37:51;5.33;;;2.60;;
15094;SDS011;7648;52.264;9.632;2023-04-25T04:41:55;7.03;;;3.00;;
15094;SDS011;7648;52.264;9.632;2023-04-25T04:46:12;11.40;;;3.37;;
15094;SDS011;7648;52.264;9.632;2023-04-25T04:50:27;6.47;;;2.63;;
15094;SDS011;7648;52.264;9.632;2023-04-25T04:54:53;6.20;;;2.80;;
15094;SDS011;7648;52.264;9.632;2023-04-25T04:59:17;8.77;;;3.00;;
15094;SDS011;7648;52.264;9.632;2023-04-25T05:03:42;7.77;;;2.43;;
15094;SDS011;7648;52.264;9.632;2023-04-25T05:07:56;9.73;;;2.90;;
15094;SDS011;7648;52.264;9.632;2023-04-25T05:12:15;8.53;;;2.93;;
15094;SDS011;7648;52.264;9.632;2023-04-25T05:16:39;7.77;;;2.90;;
15094;SDS011;7648;52.264;9.632;2023-04-25T05:21:04;5.20;;;2.60;;
15094;SDS011;7648;52.264;9.632;2023-04-25T05:25:15;6.30;;;2.33;;
15094;SDS011;7648;52.264;9.632;2023-04-25T05:29:40;8.93;;;2.90;;
15094;SDS011;7648;52.264;9.632;2023-04-25T05:34:08;4.97;;;2.20;;
15094;SDS011;7648;52.264;9.632;2023-04-25T05:38:18;6.60;;;2.47;;
15094;SDS011;7648;52.264;9.632;2023-04-25T05:42:40;4.43;;;2.90;;
15094;SDS011;7648;52.264;9.632;2023-04-25T05:46:58;10.13;;;3.00;;
15094;SDS011;7648;52.264;9.632;2023-04-25T05:51:20;7.90;;;2.00;;
15094;SDS011;7648;52.264;9.632;2023-04-25T05:55:22;9.83;;;2.70;;
15094;SDS011;7648;52.264;9.632;2023-04-25T05:59:25;5.70;;;2.60;;
15094;SDS011;7648;52.264;9.632;2023-04-25T06:03:28;7.23;;;2.50;;
15094;SDS011;7648;52.264;9.632;2023-04-25T06:07:31;6.00;;;2.60;;
15094;SDS011;7648;52.264;9.632;2023-04-25T06:11:33;4.30;;;1.93;;
15094;SDS011;7648;52.264;9.632;2023-04-25T06:15:37;8.17;;;2.10;;
15094;SDS011;7648;52.264;9.632;2023-04-25T06:19:40;9.43;;;2.50;;
15094;SDS011;7648;52.264;9.632;2023-04-25T06:23:42;6.97;;;2.67;;
15094;SDS011;7648;52.264;9.632;2023-04-25T06:27:46;6.40;;;2.67;;
15094;SDS011;7648;52.264;9.632;2023-04-25T06:31:48;3.50;;;2.10;;
15094;SDS011;7648;52.264;9.632;2023-04-25T06:35:52;8.50;;;2.03;;
15094;SDS011;7648;52.264;9.632;2023-04-25T06:39:59;6.30;;;1.97;;
15094;SDS011;7648;52.264;9.632;2023-04-25T06:44:01;5.63;;;2.20;;
15094;SDS011;7648;52.264;9.632;2023-04-25T06:48:29;6.07;;;2.53;;
15094;SDS011;7648;52.264;9.632;2023-04-25T06:52:33;7.63;;;2.00;;
15094;SDS011;7648;52.264;9.632;2023-04-25T06:56:35;5.97;;;2.43;;
15094;SDS011;7648;52.264;9.632;2023-04-25T07:00:48;8.17;;;2.53;;
15094;SDS011;7648;52.264;9.632;2023-04-25T07:04:52;6.20;;;2.17;;
15094;SDS011;7648;52.264;9.632;2023-04-25T07:08:57;5.97;;;1.97;;
15094;SDS011;7648;52.264;9.632;2023-04-25T07:13:00;5.80;;;2.20;;
15094;SDS011;7648;52.264;9.632;2023-04-25T07:17:02;6.33;;;2.17;;
15094;SDS011;7648;52.264;9.632;2023-04-25T07:21:07;4.00;;;1.97;;
15094;SDS011;7648;52.264;9.632;2023-04-25T07:25:12;6.60;;;2.13;;
15094;SDS011;7648;52.264;9.632;2023-04-25T07:29:15;7.27;;;2.10;;
15094;SDS011;7648;52.264;9.632;2023-04-25T07:33:17;5.27;;;2.07;;
15094;SDS011;7648;52.264;9.632;2023-04-25T07:37:20;6.37;;;2.03;;
15094;SDS011;7648;52.264;9.632;2023-04-25T07:41:41;3.90;;;1.57;;
15094;SDS011;7648;52.264;9.632;2023-04-25T07:45:48;4.43;;;1.87;;
15094;SDS011;7648;52.264;9.632;2023-04-25T07:49:52;6.13;;;1.73;;
15094;SDS011;7648;52.264;9.632;2023-04-25T07:53:55;3.60;;;1.70;;
15094;SDS011;7648;52.264;9.632;2023-04-25T07:57:58;8.70;;;2.00;;
15094;SDS011;7648;52.264;9.632;2023-04-25T08:02:03;7.33;;;1.73;;
15094;SDS011;7648;52.264;9.632;2023-04-25T08:06:05;3.47;;;1.83;;
15094;SDS011;7648;52.264;9.632;2023-04-25T08:10:13;1.70;;;1.60;;
15094;SDS011;7648;52.264;9.632;2023-04-25T08:14:18;7.60;;;1.90;;
15094;SDS011;7648;52.264;9.632;2023-04-25T08:18:20;4.40;;;1.47;;
15094;SDS011;7648;52.264;9.632;2023-04-25T08:22:23;3.27;;;1.77;;
15094;SDS011;7648;52.264;9.632;2023-04-25T08:26:34;5.77;;;1.40;;
15094;SDS011;7648;52.264;9.632;2023-04-25T08:30:39;3.87;;;1.47;;
15094;SDS011;7648;52.264;9.632;2023-04-25T08:34:45;4.30;;;1.43;;
15094;SDS011;7648;52.264;9.632;2023-04-25T08:38:48;3.13;;;1.50;;
15094;SDS011;7648;52.264;9.632;2023-04-25T08:42:53;1.97;;;1.37;;
15094;SDS011;7648;52.264;9.632;2023-04-25T08:46:56;5.23;;;1.60;;
15094;SDS011;7648;52.264;9.632;2023-04-25T08:51:03;3.87;;;1.30;;
15094;SDS011;7648;52.264;9.632;2023-04-25T08:55:08;4.83;;;1.53;;
15094;SDS011;7648;52.264;9.632;2023-04-25T08:59:12;3.77;;;1.60;;
15094;SDS011;7648;52.264;9.632;2023-04-25T09:03:17;8.03;;;2.07;;
15094;SDS011;7648;52.264;9.632;2023-04-25T09:07:21;1.80;;;1.30;;
15094;SDS011;7648;52.264;9.632;2023-04-25T09:11:24;5.67;;;1.50;;
15094;SDS011;7648;52.264;9.632;2023-04-25T09:15:27;6.13;;;1.63;;
15094;SDS011;7648;52.264;9.632;2023-04-25T09:19:46;3.00;;;1.80;;
15094;SDS011;7648;52.264;9.632;2023-04-25T09:23:59;3.47;;;1.27;;
15094;SDS011;7648;52.264;9.632;2023-04-25T09:28:03;1.93;;;1.33;;
15094;SDS011;7648;52.264;9.632;2023-04-25T09:32:14;1.63;;;1.03;;
15094;SDS011;7648;52.264;9.632;2023-04-25T09:36:23;2.13;;;1.47;;
15094;SDS011;7648;52.264;9.632;2023-04-25T09:40:51;4.50;;;1.30;;
15094;SDS011;7648;52.264;9.632;2023-04-25T09:45:29;3.63;;;1.40;;
15094;SDS011;7648;52.264;9.632;2023-04-25T09:49:33;1.87;;;1.40;;
15094;SDS011;7648;52.264;9.632;2023-04-25T09:53:40;3.13;;;1.20;;
15094;SDS011;7648;52.264;9.632;2023-04-25T09:57:52;1.20;;;1.07;;
15094;SDS011;7648;52.264;9.632;2023-04-25T10:01:57;4.23;;;1.13;;
15094;SDS011;7648;52.264;9.632;2023-04-25T10:06:09;3.73;;;1.40;;
15094;SDS011;7648;52.264;9.632;2023-04-25T10:10:17;3.53;;;1.30;;
15094;SDS011;7648;52.264;9.632;2023-04-25T10:14:25;2.43;;;1.30;;
15094;SDS011;7648;52.264;9.632;2023-04-25T10:18:28;2.03;;;1.17;;
15094;SDS011;7648;52.264;9.632;2023-04-25T10:22:32;2.70;;;1.30;;
15094;SDS011;7648;52.264;9.632;2023-04-25T10:26:38;3.13;;;1.53;;
15094;SDS011;7648;52.264;9.632;2023-04-25T10:30:53;2.27;;;1.00;;
15094;SDS011;7648;52.264;9.632;2023-04-25T10:35:02;2.67;;;1.60;;
15094;SDS011;7648;52.264;9.632;2023-04-25T10:39:11;2.17;;;1.57;;
15094;SDS011;7648;52.264;9.632;2023-04-25T10:47:43;2.67;;;1.17;;
15094;SDS011;7648;52.264;9.632;2023-04-25T10:51:45;5.23;;;1.23;;
15094;SDS011;7648;52.264;9.632;2023-04-25T10:55:50;3.33;;;1.40;;
15094;SDS011;7648;52.264;9.632;2023-04-25T10:59:54;1.63;;;1.20;;
15094;SDS011;7648;52.264;9.632;2023-04-25T11:03:58;3.60;;;1.47;;
15094;SDS011;7648;52.264;9.632;2023-04-25T11:08:00;4.70;;;1.87;;
15094;SDS011;7648;52.264;9.632;2023-04-25T11:12:03;2.20;;;1.00;;
15094;SDS011;7648;52.264;9.632;2023-04-25T11:16:08;1.83;;;1.53;;
15094;SDS011;7648;52.264;9.632;2023-04-25T11:20:10;7.50;;;1.60;;
15094;SDS011;7648;52.264;9.632;2023-04-25T11:24:13;3.20;;;1.67;;
15094;SDS011;7648;52.264;9.632;2023-04-25T11:28:44;1.53;;;1.10;;
15094;SDS011;7648;52.264;9.632;2023-04-25T11:32:48;2.33;;;2.03;;
15094;SDS011;7648;52.264;9.632;2023-04-25T11:36:50;1.20;;;1.10;;
15094;SDS011;7648;52.264;9.632;2023-04-25T11:40:53;2.43;;;1.27;;
15094;SDS011;7648;52.264;9.632;2023-04-25T11:44:55;1.93;;;1.70;;
15094;SDS011;7648;52.264;9.632;2023-04-25T11:48:59;3.97;;;1.50;;
15094;SDS011;7648;52.264;9.632;2023-04-25T11:53:01;2.83;;;1.40;;
15094;SDS011;7648;52.264;9.632;2023-04-25T11:57:03;2.10;;;1.63;;
15094;SDS011;7648;52.264;9.632;2023-04-25T12:01:05;4.00;;;1.50;;
15094;SDS011;7648;52.264;9.632;2023-04-25T12:05:09;2.53;;;1.30;;
15094;SDS011;7648;52.264;9.632;2023-04-25T12:09:11;4.00;;;1.27;;
15094;SDS011;7648;52.264;9.632;2023-04-25T12:13:18;1.13;;;1.10;;
15094;SDS011;7648;52.264;9.632;2023-04-25T12:17:21;2.73;;;1.00;;
15094;SDS011;7648;52.264;9.632;2023-04-25T12:21:25;1.23;;;1.13;;
15094;SDS011;7648;52.264;9.632;2023-04-25T12:25:36;1.17;;;0.97;;
15094;SDS011;7648;52.264;9.632;2023-04-25T12:29:39;2.00;;;1.17;;
15094;SDS011;7648;52.264;9.632;2023-04-25T12:33:51;1.00;;;0.87;;
15094;SDS011;7648;52.264;9.632;2023-04-25T12:37:54;1.27;;;1.17;;
15094;SDS011;7648;52.264;9.632;2023-04-25T12:41:56;2.17;;;1.10;;
15094;SDS011;7648;52.264;9.632;2023-04-25T12:45:59;1.40;;;0.70;;
15094;SDS011;7648;52.264;9.632;2023-04-25T12:50:01;1.57;;;1.10;;
15094;SDS011;7648;52.264;9.632;2023-04-25T12:54:05;1.30;;;1.17;;
15094;SDS011;7648;52.264;9.632;2023-04-25T12:58:08;1.00;;;0.87;;
15094;SDS011;7648;52.264;9.632;2023-04-25T13:02:10;1.70;;;1.37;;
15094;SDS011;7648;52.264;9.632;2023-04-25T13:06:12;2.10;;;0.70;;
15094;SDS011;7648;52.264;9.632;2023-04-25T13:10:16;1.43;;;0.77;;
15094;SDS011;7648;52.264;9.632;2023-04-25T13:14:18;2.30;;;1.13;;
15094;SDS011;7648;52.264;9.632;2023-04-25T13:18:19;2.60;;;0.90;;
15094;SDS011;7648;52.264;9.632;2023-04-25T13:22:21;2.43;;;1.03;;
15094;SDS011;7648;52.264;9.632;2023-04-25T13:26:25;0.90;;;0.80;;
15094;SDS011;7648;52.264;9.632;2023-04-25T13:30:27;0.90;;;0.90;;
15094;SDS011;7648;52.264;9.632;2023-04-25T13:34:29;1.13;;;0.93;;
15094;SDS011;7648;52.264;9.632;2023-04-25T13:38:30;1.30;;;1.20;;
15094;SDS011;7648;52.264;9.632;2023-04-25T13:42:34;2.43;;;1.10;;
15094;SDS011;7648;52.264;9.632;2023-04-25T13:46:36;1.70;;;1.07;;
15094;SDS011;7648;52.264;9.632;2023-04-25T13:50:38;4.00;;;1.10;;
15094;SDS011;7648;52.264;9.632;2023-04-25T13:54:40;2.07;;;1.20;;
15094;SDS011;7648;52.264;9.632;2023-04-25T13:58:43;0.90;;;0.90;;
15094;SDS011;7648;52.264;9.632;2023-04-25T14:02:45;2.40;;;1.30;;
15094;SDS011;7648;52.264;9.632;2023-04-25T14:06:47;2.90;;;1.03;;
15094;SDS011;7648;52.264;9.632;2023-04-25T14:10:49;1.47;;;1.33;;
15094;SDS011;7648;52.264;9.632;2023-04-25T14:14:52;1.50;;;1.40;;
15094;SDS011;7648;52.264;9.632;2023-04-25T14:18:54;1.67;;;1.20;;
15094;SDS011;7648;52.264;9.632;2023-04-25T14:22:56;2.20;;;1.30;;
15094;SDS011;7648;52.264;9.632;2023-04-25T14:26:58;1.53;;;1.43;;
15094;SDS011;7648;52.264;9.632;2023-04-25T14:31:02;2.03;;;1.20;;
15094;SDS011;7648;52.264;9.632;2023-04-25T14:35:04;3.37;;;1.10;;
15094;SDS011;7648;52.264;9.632;2023-04-25T14:39:07;3.10;;;1.23;;
15094;SDS011;7648;52.264;9.632;2023-04-25T14:43:10;1.30;;;1.20;;
15094;SDS011;7648;52.264;9.632;2023-04-25T14:47:13;2.13;;;1.10;;
15094;SDS011;7648;52.264;9.632;2023-04-25T14:51:17;2.70;;;1.20;;
15094;SDS011;7648;52.264;9.632;2023-04-25T14:55:19;2.47;;;1.10;;
15094;SDS011;7648;52.264;9.632;2023-04-25T14:59:20;2.53;;;1.40;;
15094;SDS011;7648;52.264;9.632;2023-04-25T15:03:24;1.70;;;1.00;;
15094;SDS011;7648;52.264;9.632;2023-04-25T15:07:26;1.10;;;1.00;;
15094;SDS011;7648;52.264;9.632;2023-04-25T15:11:27;2.57;;;0.90;;
15094;SDS011;7648;52.264;9.632;2023-04-25T15:15:29;2.73;;;0.87;;
15094;SDS011;7648;52.264;9.632;2023-04-25T15:19:33;1.03;;;1.00;;
15094;SDS011;7648;52.264;9.632;2023-04-25T15:23:35;1.17;;;0.90;;
15094;SDS011;7648;52.264;9.632;2023-04-25T15:27:37;1.20;;;1.20;;
15094;SDS011;7648;52.264;9.632;2023-04-25T15:31:41;1.17;;;1.10;;
15094;SDS011;7648;52.264;9.632;2023-04-25T15:35:44;2.67;;;0.90;;
15094;SDS011;7648;52.264;9.632;2023-04-25T15:39:46;0.90;;;0.90;;
15094;SDS011;7648;52.264;9.632;2023-04-25T15:43:48;1.00;;;1.00;;
15094;SDS011;7648;52.264;9.632;2023-04-25T15:47:50;1.60;;;1.00;;
15094;SDS011;7648;52.264;9.632;2023-04-25T15:51:55;1.67;;;0.90;;
15094;SDS011;7648;52.264;9.632;2023-04-25T15:55:57;1.80;;;1.70;;
15094;SDS011;7648;52.264;9.632;2023-04-25T15:59:59;1.63;;;1.07;;
15094;SDS011;7648;52.264;9.632;2023-04-25T16:04:11;1.00;;;1.00;;
15094;SDS011;7648;52.264;9.632;2023-04-25T16:08:16;4.10;;;1.27;;
15094;SDS011;7648;52.264;9.632;2023-04-25T16:12:17;1.83;;;1.07;;
15094;SDS011;7648;52.264;9.632;2023-04-25T16:16:20;1.67;;;1.43;;
15094;SDS011;7648;52.264;9.632;2023-04-25T16:20:22;0.80;;;0.80;;
15094;SDS011;7648;52.264;9.632;2023-04-25T16:24:26;2.60;;;1.40;;
15094;SDS011;7648;52.264;9.632;2023-04-25T16:28:28;1.33;;;1.23;;
15094;SDS011;7648;52.264;9.632;2023-04-25T16:32:31;1.33;;;1.10;;
15094;SDS011;7648;52.264;9.632;2023-04-25T16:36:33;1.50;;;1.23;;
15094;SDS011;7648;52.264;9.632;2023-04-25T16:40:36;3.63;;;0.97;;
15094;SDS011;7648;52.264;9.632;2023-04-25T16:44:38;1.93;;;1.23;;
15094;SDS011;7648;52.264;9.632;2023-04-25T16:48:39;1.43;;;1.33;;
15094;SDS011;7648;52.264;9.632;2023-04-25T16:52:41;3.63;;;2.30;;
15094;SDS011;7648;52.264;9.632;2023-04-25T16:56:44;3.07;;;1.33;;
15094;SDS011;7648;52.264;9.632;2023-04-25T17:00:46;1.87;;;1.30;;
15094;SDS011;7648;52.264;9.632;2023-04-25T17:04:48;4.47;;;1.57;;
15094;SDS011;7648;52.264;9.632;2023-04-25T17:08:50;1.40;;;1.30;;
15094;SDS011;7648;52.264;9.632;2023-04-25T17:12:53;2.70;;;1.17;;
15094;SDS011;7648;52.264;9.632;2023-04-25T17:16:56;1.70;;;1.27;;
15094;SDS011;7648;52.264;9.632;2023-04-25T17:20:57;1.50;;;1.30;;
15094;SDS011;7648;52.264;9.632;2023-04-25T17:25:01;2.37;;;2.00;;
15094;SDS011;7648;52.264;9.632;2023-04-25T17:29:04;3.57;;;1.40;;
15094;SDS011;7648;52.264;9.632;2023-04-25T17:33:06;1.83;;;1.73;;
15094;SDS011;7648;52.264;9.632;2023-04-25T17:37:08;2.57;;;1.13;;
15094;SDS011;7648;52.264;9.632;2023-04-25T17:41:14;2.03;;;1.00;;
15094;SDS011;7648;52.264;9.632;2023-04-25T17:45:17;1.03;;;1.03;;
15094;SDS011;7648;52.264;9.632;2023-04-25T17:49:20;1.50;;;1.40;;
15094;SDS011;7648;52.264;9.632;2023-04-25T17:53:21;0.97;;;0.90;;
15094;SDS011;7648;52.264;9.632;2023-04-25T17:57:23;3.50;;;1.27;;
15094;SDS011;7648;52.264;9.632;2023-04-25T18:01:26;1.33;;;0.90;;
15094;SDS011;7648;52.264;9.632;2023-04-25T18:05:29;1.13;;;1.13;;
15094;SDS011;7648;52.264;9.632;2023-04-25T18:09:31;1.23;;;1.13;;
15094;SDS011;7648;52.264;9.632;2023-04-25T18:13:33;2.80;;;0.80;;
15094;SDS011;7648;52.264;9.632;2023-04-25T18:17:37;4.97;;;1.20;;
15094;SDS011;7648;52.264;9.632;2023-04-25T18:21:40;2.97;;;1.20;;
15094;SDS011;7648;52.264;9.632;2023-04-25T18:25:41;2.50;;;1.50;;
15094;SDS011;7648;52.264;9.632;2023-04-25T18:29:45;2.20;;;1.00;;
15094;SDS011;7648;52.264;9.632;2023-04-25T18:33:49;1.00;;;0.93;;
15094;SDS011;7648;52.264;9.632;2023-04-25T18:37:50;1.00;;;1.00;;
15094;SDS011;7648;52.264;9.632;2023-04-25T18:41:52;1.13;;;1.00;;
15094;SDS011;7648;52.264;9.632;2023-04-25T18:45:56;0.70;;;0.70;;
15094;SDS011;7648;52.264;9.632;2023-04-25T18:49:59;2.67;;;1.27;;
15094;SDS011;7648;52.264;9.632;2023-04-25T18:54:03;3.27;;;1.07;;
15094;SDS011;7648;52.264;9.632;2023-04-25T18:58:08;1.57;;;1.00;;
15094;SDS011;7648;52.264;9.632;2023-04-25T19:02:11;2.17;;;1.10;;
15094;SDS011;7648;52.264;9.632;2023-04-25T19:06:16;2.97;;;1.10;;
15094;SDS011;7648;52.264;9.632;2023-04-25T19:10:18;1.17;;;1.10;;
15094;SDS011;7648;52.264;9.632;2023-04-25T19:14:20;3.63;;;1.30;;
15094;SDS011;7648;52.264;9.632;2023-04-25T19:18:21;1.27;;;1.20;;
15094;SDS011;7648;52.264;9.632;2023-04-25T19:22:25;1.97;;;0.70;;
15094;SDS011;7648;52.264;9.632;2023-04-25T19:26:27;1.60;;;1.07;;
15094;SDS011;7648;52.264;9.632;2023-04-25T19:30:29;1.40;;;1.30;;
15094;SDS011;7648;52.264;9.632;2023-04-25T19:34:31;2.23;;;1.20;;
15094;SDS011;7648;52.264;9.632;2023-04-25T19:38:35;1.00;;;1.00;;
15094;SDS011;7648;52.264;9.632;2023-04-25T19:42:36;2.00;;;1.00;;
15094;SDS011;7648;52.264;9.632;2023-04-25T19:46:38;1.23;;;1.13;;
15094;SDS011;7648;52.264;9.632;2023-04-25T19:50:41;3.03;;;1.10;;
15094;SDS011;7648;52.264;9.632;2023-04-25T19:54:44;1.77;;;0.97;;
15094;SDS011;7648;52.264;9.632;2023-04-25T19:58:46;4.10;;;1.17;;
15094;SDS011;7648;52.264;9.632;2023-04-25T20:02:48;0.97;;;0.87;;
15094;SDS011;7648;52.264;9.632;2023-04-25T20:06:50;2.37;;;1.10;;
15094;SDS011;7648;52.264;9.632;2023-04-25T20:10:53;1.43;;;1.33;;
15094;SDS011;7648;52.264;9.632;2023-04-25T20:14:55;2.43;;;1.03;;
15094;SDS011;7648;52.264;9.632;2023-04-25T20:18:57;2.57;;;0.93;;
15094;SDS011;7648;52.264;9.632;2023-04-25T20:23:00;3.20;;;1.43;;
15094;SDS011;7648;52.264;9.632;2023-04-25T20:27:03;1.27;;;1.00;;
15094;SDS011;7648;52.264;9.632;2023-04-25T20:31:06;1.07;;;1.07;;
15094;SDS011;7648;52.264;9.632;2023-04-25T20:35:09;2.33;;;1.63;;
15094;SDS011;7648;52.264;9.632;2023-04-25T20:39:12;2.73;;;1.30;;
15094;SDS011;7648;52.264;9.632;2023-04-25T20:43:15;2.50;;;1.63;;
15094;SDS011;7648;52.264;9.632;2023-04-25T20:47:19;3.53;;;0.90;;
15094;SDS011;7648;52.264;9.632;2023-04-25T20:51:21;1.67;;;1.20;;
15094;SDS011;7648;52.264;9.632;2023-04-25T20:55:23;2.03;;;1.07;;
15094;SDS011;7648;52.264;9.632;2023-04-25T20:59:27;2.13;;;1.10;;
15094;SDS011;7648;52.264;9.632;2023-04-25T21:03:29;1.33;;;1.23;;
15094;SDS011;7648;52.264;9.632;2023-04-25T21:07:31;1.43;;;0.90;;
15094;SDS011;7648;52.264;9.632;2023-04-25T21:11:33;1.23;;;1.17;;
15094;SDS011;7648;52.264;9.632;2023-04-25T21:15:36;1.20;;;1.10;;
15094;SDS011;7648;52.264;9.632;2023-04-25T21:19:38;3.43;;;1.00;;
15094;SDS011;7648;52.264;9.632;2023-04-25T21:23:40;2.70;;;1.10;;
15094;SDS011;7648;52.264;9.632;2023-04-25T21:27:42;1.50;;;1.30;;
15094;SDS011;7648;52.264;9.632;2023-04-25T21:31:45;3.67;;;1.20;;
15094;SDS011;7648;52.264;9.632;2023-04-25T21:35:47;3.50;;;1.00;;
15094;SDS011;7648;52.264;9.632;2023-04-25T21:39:49;2.83;;;1.40;;
15094;SDS011;7648;52.264;9.632;2023-04-25T21:43:51;2.93;;;1.10;;
15094;SDS011;7648;52.264;9.632;2023-04-25T21:47:54;0.97;;;0.83;;
15094;SDS011;7648;52.264;9.632;2023-04-25T21:51:56;2.53;;;0.90;;
15094;SDS011;7648;52.264;9.632;2023-04-25T21:55:58;2.70;;;1.20;;
15094;SDS011;7648;52.264;9.632;2023-04-25T22:00:00;0.77;;;0.70;;
15094;SDS011;7648;52.264;9.632;2023-04-25T22:04:07;1.13;;;1.00;;
15094;SDS011;7648;52.264;9.632;2023-04-25T22:08:09;2.10;;;0.93;;
15094;SDS011;7648;52.264;9.632;2023-04-25T22:12:10;0.93;;;0.93;;
15094;SDS011;7648;52.264;9.632;2023-04-25T22:16:38;1.73;;;0.90;;
15094;SDS011;7648;52.264;9.632;2023-04-25T22:20:41;4.00;;;1.23;;
15094;SDS011;7648;52.264;9.632;2023-04-25T22:24:44;1.37;;;0.80;;
15094;SDS011;7648;52.264;9.632;2023-04-25T22:28:47;4.87;;;1.07;;
15094;SDS011;7648;52.264;9.632;2023-04-25T22:32:49;2.37;;;0.90;;
15094;SDS011;7648;52.264;9.632;2023-04-25T22:36:52;2.90;;;1.47;;
15094;SDS011;7648;52.264;9.632;2023-04-25T22:40:54;2.20;;;1.00;;
15094;SDS011;7648;52.264;9.632;2023-04-25T22:44:58;2.00;;;1.17;;
15094;SDS011;7648;52.264;9.632;2023-04-25T22:49:00;3.40;;;1.03;;
15094;SDS011;7648;52.264;9.632;2023-04-25T22:53:03;5.40;;;1.23;;
15094;SDS011;7648;52.264;9.632;2023-04-25T22:57:05;3.77;;;1.40;;
15094;SDS011;7648;52.264;9.632;2023-04-25T23:01:07;5.83;;;1.33;;
15094;SDS011;7648;52.264;9.632;2023-04-25T23:05:10;6.07;;;1.63;;
15094;SDS011;7648;52.264;9.632;2023-04-25T23:09:13;5.27;;;1.57;;
15094;SDS011;7648;52.264;9.632;2023-04-25T23:13:16;2.03;;;1.10;;
15094;SDS011;7648;52.264;9.632;2023-04-25T23:17:17;1.80;;;0.97;;
15094;SDS011;7648;52.264;9.632;2023-04-25T23:21:20;1.40;;;1.30;;
15094;SDS011;7648;52.264;9.632;2023-04-25T23:25:23;3.73;;;1.53;;
15094;SDS011;7648;52.264;9.632;2023-04-25T23:29:26;3.87;;;1.37;;
15094;SDS011;7648;52.264;9.632;2023-04-25T23:33:27;2.20;;;1.17;;
15094;SDS011;7648;52.264;9.632;2023-04-25T23:37:31;3.00;;;1.53;;
15094;SDS011;7648;52.264;9.632;2023-04-25T23:41:34;1.43;;;1.00;;
15094;SDS011;7648;52.264;9.632;2023-04-25T23:45:36;1.20;;;0.77;;
15094;SDS011;7648;52.264;9.632;2023-04-25T23:49:39;2.63;;;1.10;;
15094;SDS011;7648;52.264;9.632;2023-04-25T23:53:41;1.47;;;0.93;;
15094;SDS011;7648;52.264;9.632;2023-04-25T23:57:44;1.30;;;0.90;;
